sensor_id;sensor_type;location;lat;lon;timestamp;pressure;altitude;pressure_sealevel;temperature;humidity
71194;BME280;58903;47.210;8.618;2023-01-05T00:01:10;95095.75;;;25.79;42.16
71194;BME280;58903;47.210;8.618;2023-01-05T00:03:52;95093.00;;;25.79;42.48
71194;BME280;58903;47.210;8.618;2023-01-05T00:06:27;95094.47;;;25.80;41.85
71194;BME280;58903;47.210;8.618;2023-01-05T00:08:57;95086.72;;;25.79;41.80
71194;BME280;58903;47.210;8.618;2023-01-05T00:11:33;95081.19;;;25.79;42.06
71194;BME280;58903;47.210;8.618;2023-01-05T00:14:21;95078.44;;;25.79;41.72
71194;BME280;58903;47.210;8.618;2023-01-05T00:17:13;95076.44;;;25.79;42.28
71194;BME280;58903;47.210;8.618;2023-01-05T00:19:58;95062.66;;;25.79;42.49
71194;BME280;58903;47.210;8.618;2023-01-05T00:22:52;95060.66;;;25.80;41.98
71194;BME280;58903;47.210;8.618;2023-01-05T00:25:21;95052.88;;;25.78;42.40
71194;BME280;58903;47.210;8.618;2023-01-05T00:27:56;95059.91;;;25.79;42.24
71194;BME280;58903;47.210;8.618;2023-01-05T00:31:00;95056.41;;;25.79;41.63
71194;BME280;58903;47.210;8.618;2023-01-05T00:33:35;95061.16;;;25.78;42.03
71194;BME280;58903;47.210;8.618;2023-01-05T00:36:07;95057.91;;;25.80;42.32
71194;BME280;58903;47.210;8.618;2023-01-05T00:38:34;95048.66;;;25.77;42.61
71194;BME280;58903;47.210;8.618;2023-01-05T00:41:03;95051.41;;;25.77;41.91
71194;BME280;58903;47.210;8.618;2023-01-05T00:43:28;95055.38;;;25.76;42.28
71194;BME280;58903;47.210;8.618;2023-01-05T00:45:54;95049.38;;;25.78;41.68
71194;BME280;58903;47.210;8.618;2023-01-05T00:48:24;95038.34;;;25.78;42.21
71194;BME280;58903;47.210;8.618;2023-01-05T00:51:08;95041.88;;;25.78;42.17
71194;BME280;58903;47.210;8.618;2023-01-05T00:53:38;95029.59;;;25.79;41.74
71194;BME280;58903;47.210;8.618;2023-01-05T00:56:05;95037.13;;;25.79;42.01
71194;BME280;58903;47.210;8.618;2023-01-05T00:58:36;95027.06;;;25.76;42.54
71194;BME280;58903;47.210;8.618;2023-01-05T01:01:14;95025.06;;;25.76;42.50
71194;BME280;58903;47.210;8.618;2023-01-05T01:03:42;95014.06;;;25.76;42.16
71194;BME280;58903;47.210;8.618;2023-01-05T01:06:36;95022.56;;;25.78;41.64
71194;BME280;58903;47.210;8.618;2023-01-05T01:09:19;95018.59;;;25.79;41.84
71194;BME280;58903;47.210;8.618;2023-01-05T01:11:57;95012.06;;;25.77;41.71
71194;BME280;58903;47.210;8.618;2023-01-05T01:14:23;95013.06;;;25.79;42.26
71194;BME280;58903;47.210;8.618;2023-01-05T01:16:50;95008.53;;;25.76;41.98
71194;BME280;58903;47.210;8.618;2023-01-05T01:19:19;95003.28;;;25.78;41.93
71194;BME280;58903;47.210;8.618;2023-01-05T01:21:55;95003.03;;;25.76;42.24
71194;BME280;58903;47.210;8.618;2023-01-05T01:24:58;95003.28;;;25.78;41.88
71194;BME280;58903;47.210;8.618;2023-01-05T01:27:56;94995.03;;;25.78;42.12
71194;BME280;58903;47.210;8.618;2023-01-05T01:33:37;94994.25;;;25.78;41.55
71194;BME280;58903;47.210;8.618;2023-01-05T01:36:05;94991.25;;;25.76;41.57
71194;BME280;58903;47.210;8.618;2023-01-05T01:38:33;94985.25;;;25.72;42.11
71194;BME280;58903;47.210;8.618;2023-01-05T01:41:00;94983.00;;;25.70;42.55
71194;BME280;58903;47.210;8.618;2023-01-05T01:43:51;94994.00;;;25.70;42.23
71194;BME280;58903;47.210;8.618;2023-01-05T01:46:22;94989.47;;;25.67;42.15
71194;BME280;58903;47.210;8.618;2023-01-05T01:48:57;94996.50;;;25.68;42.46
71194;BME280;58903;47.210;8.618;2023-01-05T01:51:40;94999.25;;;25.68;42.47
71194;BME280;58903;47.210;8.618;2023-01-05T01:54:18;94998.00;;;25.69;42.07
71194;BME280;58903;47.210;8.618;2023-01-05T01:56:52;94999.53;;;25.70;41.90
71194;BME280;58903;47.210;8.618;2023-01-05T01:59:21;94998.50;;;25.68;42.69
71194;BME280;58903;47.210;8.618;2023-01-05T02:01:54;94990.25;;;25.68;41.62
71194;BME280;58903;47.210;8.618;2023-01-05T02:04:24;94978.22;;;25.65;42.25
71194;BME280;58903;47.210;8.618;2023-01-05T02:06:52;94991.00;;;25.68;41.68
71194;BME280;58903;47.210;8.618;2023-01-05T02:09:19;94995.25;;;25.69;42.10
71194;BME280;58903;47.210;8.618;2023-01-05T02:12:03;94986.97;;;25.69;41.82
71194;BME280;58903;47.210;8.618;2023-01-05T02:28:45;94988.97;;;25.69;42.04
71194;BME280;58903;47.210;8.618;2023-01-05T02:31:48;94984.72;;;25.68;42.16
71194;BME280;58903;47.210;8.618;2023-01-05T02:40:31;94972.19;;;25.61;42.96
71194;BME280;58903;47.210;8.618;2023-01-05T02:43:03;94965.16;;;25.60;42.05
71194;BME280;58903;47.210;8.618;2023-01-05T02:45:30;94960.91;;;25.59;42.07
71194;BME280;58903;47.210;8.618;2023-01-05T02:48:13;94951.16;;;25.64;42.60
71194;BME280;58903;47.210;8.618;2023-01-05T02:51:04;94943.13;;;25.60;41.94
71194;BME280;58903;47.210;8.618;2023-01-05T02:53:41;94953.88;;;25.58;42.53
71194;BME280;58903;47.210;8.618;2023-01-05T02:56:33;94944.91;;;25.63;42.49
71194;BME280;58903;47.210;8.618;2023-01-05T02:59:08;94945.91;;;25.66;42.79
71194;BME280;58903;47.210;8.618;2023-01-05T03:01:44;94949.41;;;25.66;42.28
71194;BME280;58903;47.210;8.618;2023-01-05T03:04:38;94954.94;;;25.66;42.75
71194;BME280;58903;47.210;8.618;2023-01-05T03:07:16;94954.94;;;25.66;42.13
71194;BME280;58903;47.210;8.618;2023-01-05T03:09:45;94963.94;;;25.67;42.31
71194;BME280;58903;47.210;8.618;2023-01-05T03:12:21;94955.66;;;25.67;41.71
71194;BME280;58903;47.210;8.618;2023-01-05T03:15:13;94954.16;;;25.66;41.69
71194;BME280;58903;47.210;8.618;2023-01-05T03:17:49;94954.16;;;25.66;41.99
71194;BME280;58903;47.210;8.618;2023-01-05T03:20:23;94951.66;;;25.68;42.37
71194;BME280;58903;47.210;8.618;2023-01-05T03:22:53;94952.19;;;25.66;41.84
71194;BME280;58903;47.210;8.618;2023-01-05T03:25:54;94943.16;;;25.66;42.43
71194;BME280;58903;47.210;8.618;2023-01-05T03:29:06;94959.19;;;25.62;41.95
71194;BME280;58903;47.210;8.618;2023-01-05T03:32:20;94956.16;;;25.60;42.96
71194;BME280;58903;47.210;8.618;2023-01-05T03:35:25;94956.41;;;25.62;42.62
71194;BME280;58903;47.210;8.618;2023-01-05T03:40:38;94966.44;;;25.65;42.80
71194;BME280;58903;47.210;8.618;2023-01-05T03:43:06;94966.44;;;25.65;42.77
71194;BME280;58903;47.210;8.618;2023-01-05T03:45:41;94942.66;;;25.62;42.77
71194;BME280;58903;47.210;8.618;2023-01-05T03:48:11;94951.91;;;25.64;41.94
71194;BME280;58903;47.210;8.618;2023-01-05T03:50:57;94949.91;;;25.65;42.46
71194;BME280;58903;47.210;8.618;2023-01-05T03:53:39;94947.66;;;25.63;42.58
71194;BME280;58903;47.210;8.618;2023-01-05T03:56:05;94955.91;;;25.63;42.40
71194;BME280;58903;47.210;8.618;2023-01-05T03:58:36;94953.66;;;25.62;42.29
71194;BME280;58903;47.210;8.618;2023-01-05T04:01:02;94951.91;;;25.64;42.42
71194;BME280;58903;47.210;8.618;2023-01-05T04:03:59;94949.16;;;25.64;42.25
71194;BME280;58903;47.210;8.618;2023-01-05T04:06:50;94940.91;;;25.64;42.74
71194;BME280;58903;47.210;8.618;2023-01-05T04:09:30;94941.63;;;25.65;42.45
71194;BME280;58903;47.210;8.618;2023-01-05T04:12:11;94940.16;;;25.64;41.98
71194;BME280;58903;47.210;8.618;2023-01-05T04:14:39;94941.63;;;25.65;42.48
71194;BME280;58903;47.210;8.618;2023-01-05T04:17:05;94946.41;;;25.64;42.17
71194;BME280;58903;47.210;8.618;2023-01-05T04:19:31;94946.41;;;25.64;41.91
71194;BME280;58903;47.210;8.618;2023-01-05T04:21:57;94950.66;;;25.65;42.48
71194;BME280;58903;47.210;8.618;2023-01-05T04:25:00;94954.16;;;25.66;41.79
71194;BME280;58903;47.210;8.618;2023-01-05T04:27:26;94953.41;;;25.65;42.56
71194;BME280;58903;47.210;8.618;2023-01-05T04:29:56;94951.41;;;25.66;42.43
71194;BME280;58903;47.210;8.618;2023-01-05T04:32:39;94946.66;;;25.66;42.23
71194;BME280;58903;47.210;8.618;2023-01-05T04:35:05;94944.38;;;25.65;42.59
71194;BME280;58903;47.210;8.618;2023-01-05T04:38:03;94954.16;;;25.66;42.31
71194;BME280;58903;47.210;8.618;2023-01-05T04:40:31;94948.41;;;25.64;42.69
71194;BME280;58903;47.210;8.618;2023-01-05T04:43:06;94940.91;;;25.64;42.09
71194;BME280;58903;47.210;8.618;2023-01-05T04:45:33;94939.38;;;25.63;42.24
71194;BME280;58903;47.210;8.618;2023-01-05T04:47:59;94943.66;;;25.64;42.63
71194;BME280;58903;47.210;8.618;2023-01-05T04:50:34;94938.88;;;25.65;43.02
71194;BME280;58903;47.210;8.618;2023-01-05T04:53:04;94945.16;;;25.65;41.83
71194;BME280;58903;47.210;8.618;2023-01-05T04:55:34;94959.44;;;25.64;42.40
71194;BME280;58903;47.210;8.618;2023-01-05T04:58:22;94953.41;;;25.65;42.20
71194;BME280;58903;47.210;8.618;2023-01-05T05:00:50;94956.16;;;25.65;42.75
71194;BME280;58903;47.210;8.618;2023-01-05T05:03:16;94947.91;;;25.65;41.84
71194;BME280;58903;47.210;8.618;2023-01-05T05:05:45;94950.66;;;25.65;42.27
71194;BME280;58903;47.210;8.618;2023-01-05T05:08:16;94951.91;;;25.64;42.64
71194;BME280;58903;47.210;8.618;2023-01-05T05:10:46;94958.91;;;25.65;42.17
71194;BME280;58903;47.210;8.618;2023-01-05T05:13:12;94965.94;;;25.66;42.07
71194;BME280;58903;47.210;8.618;2023-01-05T05:15:43;94961.69;;;25.65;42.40
71194;BME280;58903;47.210;8.618;2023-01-05T05:18:10;94967.94;;;25.66;42.04
71194;BME280;58903;47.210;8.618;2023-01-05T05:20:41;94950.66;;;25.65;42.26
71194;BME280;58903;47.210;8.618;2023-01-05T05:23:08;94951.66;;;25.68;42.23
71194;BME280;58903;47.210;8.618;2023-01-05T05:25:34;94956.41;;;25.67;41.80
71194;BME280;58903;47.210;8.618;2023-01-05T05:28:00;94961.16;;;25.67;42.03
71194;BME280;58903;47.210;8.618;2023-01-05T05:30:33;94958.91;;;25.65;42.13
71194;BME280;58903;47.210;8.618;2023-01-05T05:33:00;94963.69;;;25.65;41.88
71194;BME280;58903;47.210;8.618;2023-01-05T05:35:26;94963.69;;;25.65;42.64
71194;BME280;58903;47.210;8.618;2023-01-05T05:37:52;94953.41;;;25.65;42.41
71194;BME280;58903;47.210;8.618;2023-01-05T05:40:19;94946.13;;;25.62;42.65
71194;BME280;58903;47.210;8.618;2023-01-05T05:42:45;94958.91;;;25.65;41.84
71194;BME280;58903;47.210;8.618;2023-01-05T05:45:11;94945.16;;;25.65;42.66
71194;BME280;58903;47.210;8.618;2023-01-05T05:47:43;94950.91;;;25.67;42.35
71194;BME280;58903;47.210;8.618;2023-01-05T05:50:10;94945.16;;;25.65;42.36
71194;BME280;58903;47.210;8.618;2023-01-05T05:52:48;94962.94;;;25.64;42.29
71194;BME280;58903;47.210;8.618;2023-01-05T05:55:19;94969.19;;;25.65;41.80
71194;BME280;58903;47.210;8.618;2023-01-05T05:57:46;94975.44;;;25.65;42.97
71194;BME280;58903;47.210;8.618;2023-01-05T06:00:17;94976.44;;;25.62;42.68
71194;BME280;58903;47.210;8.618;2023-01-05T06:02:46;94980.44;;;25.61;42.58
71194;BME280;58903;47.210;8.618;2023-01-05T06:05:12;94976.44;;;25.62;42.11
71194;BME280;58903;47.210;8.618;2023-01-05T06:07:40;94982.44;;;25.61;42.35
71194;BME280;58903;47.210;8.618;2023-01-05T06:10:06;94985.97;;;25.61;42.04
71194;BME280;58903;47.210;8.618;2023-01-05T06:12:35;94986.22;;;25.63;42.25
71194;BME280;58903;47.210;8.618;2023-01-05T06:15:06;94982.44;;;25.61;42.00
71194;BME280;58903;47.210;8.618;2023-01-05T06:17:34;94989.72;;;25.64;42.37
71194;BME280;58903;47.210;8.618;2023-01-05T06:20:06;94996.00;;;25.64;42.78
71194;BME280;58903;47.210;8.618;2023-01-05T06:22:34;94988.97;;;25.63;42.67
71194;BME280;58903;47.210;8.618;2023-01-05T06:25:00;94998.75;;;25.64;42.52
71194;BME280;58903;47.210;8.618;2023-01-05T06:27:26;94997.25;;;25.63;42.53
71194;BME280;58903;47.210;8.618;2023-01-05T06:29:52;94994.47;;;25.63;42.05
71194;BME280;58903;47.210;8.618;2023-01-05T06:32:18;94996.00;;;25.64;42.09
71194;BME280;58903;47.210;8.618;2023-01-05T06:34:46;94998.47;;;25.62;41.99
71194;BME280;58903;47.210;8.618;2023-01-05T06:37:14;95002.00;;;25.63;41.86
71194;BME280;58903;47.210;8.618;2023-01-05T06:39:40;95004.75;;;25.63;42.67
71194;BME280;58903;47.210;8.618;2023-01-05T06:42:08;94994.72;;;25.65;42.51
71194;BME280;58903;47.210;8.618;2023-01-05T06:44:34;94997.50;;;25.65;42.65
71194;BME280;58903;47.210;8.618;2023-01-05T06:47:04;94995.25;;;25.64;42.86
71194;BME280;58903;47.210;8.618;2023-01-05T06:49:34;94995.50;;;25.66;42.68
71194;BME280;58903;47.210;8.618;2023-01-05T06:52:02;94988.97;;;25.63;43.10
71194;BME280;58903;47.210;8.618;2023-01-05T06:54:31;94986.47;;;25.65;42.39
71194;BME280;58903;47.210;8.618;2023-01-05T06:57:01;94993.25;;;25.64;42.28
71194;BME280;58903;47.210;8.618;2023-01-05T06:59:27;94985.72;;;25.65;42.78
71194;BME280;58903;47.210;8.618;2023-01-05T07:01:55;94996.25;;;25.66;42.44
71194;BME280;58903;47.210;8.618;2023-01-05T07:04:21;94991.47;;;25.67;42.76
71194;BME280;58903;47.210;8.618;2023-01-05T07:06:47;94991.97;;;25.65;42.01
71194;BME280;58903;47.210;8.618;2023-01-05T07:09:13;95000.28;;;25.71;41.99
71194;BME280;58903;47.210;8.618;2023-01-05T07:11:43;95001.00;;;25.71;42.51
71194;BME280;58903;47.210;8.618;2023-01-05T07:14:09;94999.53;;;25.70;42.80
71194;BME280;58903;47.210;8.618;2023-01-05T07:16:35;95003.75;;;25.71;42.40
71194;BME280;58903;47.210;8.618;2023-01-05T07:19:01;95004.53;;;25.72;42.94
71194;BME280;58903;47.210;8.618;2023-01-05T07:21:27;95005.50;;;25.69;42.29
71194;BME280;58903;47.210;8.618;2023-01-05T07:23:53;95000.50;;;25.67;42.58
71194;BME280;58903;47.210;8.618;2023-01-05T07:26:21;95015.28;;;25.70;42.84
71194;BME280;58903;47.210;8.618;2023-01-05T07:28:47;95023.81;;;25.72;42.09
71194;BME280;58903;47.210;8.618;2023-01-05T07:31:15;95021.81;;;25.72;42.06
71194;BME280;58903;47.210;8.618;2023-01-05T07:33:57;95024.56;;;25.72;42.79
71194;BME280;58903;47.210;8.618;2023-01-05T07:36:26;95031.56;;;25.73;42.98
71194;BME280;58903;47.210;8.618;2023-01-05T07:38:52;95028.34;;;25.75;42.79
71194;BME280;58903;47.210;8.618;2023-01-05T07:41:21;95033.34;;;25.76;41.81
71194;BME280;58903;47.210;8.618;2023-01-05T07:44:13;95035.34;;;25.76;42.88
71194;BME280;58903;47.210;8.618;2023-01-05T07:47:02;95038.09;;;25.76;42.17
71194;BME280;58903;47.210;8.618;2023-01-05T07:49:48;95048.59;;;25.72;43.00
71194;BME280;58903;47.210;8.618;2023-01-05T07:52:24;95036.81;;;25.71;42.85
71194;BME280;58903;47.210;8.618;2023-01-05T07:55:07;95034.59;;;25.75;41.82
71194;BME280;58903;47.210;8.618;2023-01-05T07:57:48;95040.84;;;25.76;42.45
71194;BME280;58903;47.210;8.618;2023-01-05T08:00:33;95027.06;;;25.76;42.77
71194;BME280;58903;47.210;8.618;2023-01-05T08:03:01;95026.06;;;25.73;42.62
71194;BME280;58903;47.210;8.618;2023-01-05T08:05:34;95028.09;;;25.73;42.67
71194;BME280;58903;47.210;8.618;2023-01-05T08:08:00;95030.09;;;25.72;42.67
71194;BME280;58903;47.210;8.618;2023-01-05T08:11:07;95042.59;;;25.73;41.92
71194;BME280;58903;47.210;8.618;2023-01-05T08:13:33;95043.84;;;25.72;42.26
71194;BME280;58903;47.210;8.618;2023-01-05T08:16:18;95042.34;;;25.71;42.27
71194;BME280;58903;47.210;8.618;2023-01-05T08:18:53;95040.34;;;25.72;42.01
71194;BME280;58903;47.210;8.618;2023-01-05T08:21:27;95040.84;;;25.70;42.64
71194;BME280;58903;47.210;8.618;2023-01-05T08:24:06;95041.09;;;25.72;42.92
71194;BME280;58903;47.210;8.618;2023-01-05T08:26:33;95043.34;;;25.74;42.95
71194;BME280;58903;47.210;8.618;2023-01-05T08:29:01;95051.63;;;25.74;42.33
71194;BME280;58903;47.210;8.618;2023-01-05T08:31:30;95060.66;;;25.74;42.76
71194;BME280;58903;47.210;8.618;2023-01-05T08:33:58;95057.13;;;25.74;42.75
71194;BME280;58903;47.210;8.618;2023-01-05T08:36:30;95057.63;;;25.72;42.59
71194;BME280;58903;47.210;8.618;2023-01-05T08:38:56;95057.63;;;25.72;42.39
71194;BME280;58903;47.210;8.618;2023-01-05T08:41:29;95072.91;;;25.73;42.59
71194;BME280;58903;47.210;8.618;2023-01-05T08:43:58;95074.94;;;25.73;42.70
71194;BME280;58903;47.210;8.618;2023-01-05T08:46:33;95072.91;;;25.73;43.59
71194;BME280;58903;47.210;8.618;2023-01-05T08:49:03;95077.19;;;25.74;42.76
71194;BME280;58903;47.210;8.618;2023-01-05T08:51:30;95081.16;;;25.73;42.64
71194;BME280;58903;47.210;8.618;2023-01-05T08:53:56;95081.16;;;25.73;43.09
71194;BME280;58903;47.210;8.618;2023-01-05T08:56:24;95086.94;;;25.75;43.39
71194;BME280;58903;47.210;8.618;2023-01-05T08:58:51;95086.94;;;25.75;43.29
71194;BME280;58903;47.210;8.618;2023-01-05T09:01:18;95091.22;;;25.76;43.12
71194;BME280;58903;47.210;8.618;2023-01-05T09:03:49;95088.44;;;25.76;43.32
71194;BME280;58903;47.210;8.618;2023-01-05T09:06:17;95087.94;;;25.78;43.44
71194;BME280;58903;47.210;8.618;2023-01-05T09:08:44;95090.97;;;25.80;42.88
71194;BME280;58903;47.210;8.618;2023-01-05T09:11:18;95085.97;;;25.78;43.18
71194;BME280;58903;47.210;8.618;2023-01-05T09:13:50;95087.22;;;25.77;43.83
71194;BME280;58903;47.210;8.618;2023-01-05T09:16:19;95093.97;;;25.76;43.69
71194;BME280;58903;47.210;8.618;2023-01-05T09:18:46;95098.97;;;25.78;43.47
71194;BME280;58903;47.210;8.618;2023-01-05T09:21:12;95097.97;;;25.75;43.17
71194;BME280;58903;47.210;8.618;2023-01-05T09:23:51;95102.22;;;25.76;43.82
71194;BME280;58903;47.210;8.618;2023-01-05T09:26:19;95101.97;;;25.74;44.00
71194;BME280;58903;47.210;8.618;2023-01-05T09:28:51;95102.75;;;25.75;43.88
71194;BME280;58903;47.210;8.618;2023-01-05T09:31:20;95110.25;;;25.74;43.38
71194;BME280;58903;47.210;8.618;2023-01-05T09:33:47;95103.47;;;25.75;43.82
71194;BME280;58903;47.210;8.618;2023-01-05T09:36:15;95110.50;;;25.76;43.98
71194;BME280;58903;47.210;8.618;2023-01-05T09:38:44;95109.75;;;25.76;44.51
71194;BME280;58903;47.210;8.618;2023-01-05T09:44:18;95117.53;;;25.77;43.86
71194;BME280;58903;47.210;8.618;2023-01-05T09:46:50;95112.50;;;25.76;44.19
71194;BME280;58903;47.210;8.618;2023-01-05T09:49:21;95117.53;;;25.77;44.35
71194;BME280;58903;47.210;8.618;2023-01-05T09:51:56;95119.28;;;25.80;43.59
71194;BME280;58903;47.210;8.618;2023-01-05T09:54:27;95117.03;;;25.79;43.67
71194;BME280;58903;47.210;8.618;2023-01-05T09:56:56;95120.03;;;25.81;43.85
71194;BME280;58903;47.210;8.618;2023-01-05T09:59:32;95133.31;;;25.82;44.17
71194;BME280;58903;47.210;8.618;2023-01-05T10:02:08;95123.06;;;25.83;44.65
71194;BME280;58903;47.210;8.618;2023-01-05T10:04:39;95120.28;;;25.83;44.33
71194;BME280;58903;47.210;8.618;2023-01-05T10:07:18;95121.31;;;25.85;44.53
71194;BME280;58903;47.210;8.618;2023-01-05T10:09:46;95121.81;;;25.89;44.32
71194;BME280;58903;47.210;8.618;2023-01-05T10:12:24;95112.28;;;25.90;43.52
71194;BME280;58903;47.210;8.618;2023-01-05T10:15:19;95124.84;;;25.91;44.23
71194;BME280;58903;47.210;8.618;2023-01-05T10:17:47;95129.84;;;25.93;44.24
71194;BME280;58903;47.210;8.618;2023-01-05T10:26:25;95130.59;;;25.93;43.33
71194;BME280;58903;47.210;8.618;2023-01-05T10:28:58;95128.63;;;25.94;43.38
71194;BME280;58903;47.210;8.618;2023-01-05T10:31:40;95119.84;;;25.95;43.55
71194;BME280;58903;47.210;8.618;2023-01-05T10:37:46;95116.56;;;25.97;43.94
71194;BME280;58903;47.210;8.618;2023-01-05T10:40:47;95115.59;;;26.00;43.84
71194;BME280;58903;47.210;8.618;2023-01-05T10:46:00;95103.56;;;25.97;43.99
71194;BME280;58903;47.210;8.618;2023-01-05T10:48:32;95111.06;;;25.97;43.42
71194;BME280;58903;47.210;8.618;2023-01-05T10:51:00;95106.06;;;25.95;43.95
71194;BME280;58903;47.210;8.618;2023-01-05T10:53:28;95102.53;;;25.95;44.12
71194;BME280;58903;47.210;8.618;2023-01-05T10:56:05;95096.28;;;25.94;44.54
71194;BME280;58903;47.210;8.618;2023-01-05T10:58:38;95091.75;;;25.91;43.80
71194;BME280;58903;47.210;8.618;2023-01-05T11:01:45;95094.78;;;25.93;44.32
71194;BME280;58903;47.210;8.618;2023-01-05T11:04:17;95091.00;;;25.91;44.92
71194;BME280;58903;47.210;8.618;2023-01-05T11:07:02;95097.28;;;25.91;45.24
71194;BME280;58903;47.210;8.618;2023-01-05T11:09:39;95098.03;;;25.92;44.10
71194;BME280;58903;47.210;8.618;2023-01-05T11:12:26;95105.03;;;25.93;44.72
71194;BME280;58903;47.210;8.618;2023-01-05T11:14:55;95098.28;;;25.94;44.10
71194;BME280;58903;47.210;8.618;2023-01-05T11:17:26;95094.28;;;25.95;44.72
71194;BME280;58903;47.210;8.618;2023-01-05T11:20:15;95091.03;;;25.96;44.61
71194;BME280;58903;47.210;8.618;2023-01-05T11:22:51;95093.03;;;25.96;44.41
71194;BME280;58903;47.210;8.618;2023-01-05T11:25:38;95088.53;;;25.98;44.50
71194;BME280;58903;47.210;8.618;2023-01-05T11:28:36;95088.28;;;25.96;43.84
71194;BME280;58903;47.210;8.618;2023-01-05T11:34:57;95083.78;;;26.04;44.46
71194;BME280;58903;47.210;8.618;2023-01-05T11:37:26;95091.34;;;26.09;43.47
71194;BME280;58903;47.210;8.618;2023-01-05T11:40:23;95086.28;;;26.08;43.98
71194;BME280;58903;47.210;8.618;2023-01-05T11:43:11;95081.06;;;26.10;43.81
71194;BME280;58903;47.210;8.618;2023-01-05T11:45:55;95074.81;;;26.09;43.57
71194;BME280;58903;47.210;8.618;2023-01-05T11:48:26;95074.56;;;26.13;43.68
71194;BME280;58903;47.210;8.618;2023-01-05T11:50:56;95078.06;;;26.13;44.08
71194;BME280;58903;47.210;8.618;2023-01-05T11:53:41;95076.56;;;26.12;44.12
71194;BME280;58903;47.210;8.618;2023-01-05T11:56:19;95074.56;;;26.13;43.35
71194;BME280;58903;47.210;8.618;2023-01-05T11:58:53;95077.31;;;26.13;44.15
71194;BME280;58903;47.210;8.618;2023-01-05T12:10:09;95073.00;;;26.06;43.84
71194;BME280;58903;47.210;8.618;2023-01-05T12:13:02;95069.31;;;26.09;43.27
71194;BME280;58903;47.210;8.618;2023-01-05T12:21:22;95070.31;;;26.17;43.43
71194;BME280;58903;47.210;8.618;2023-01-05T12:53:00;95036.72;;;26.13;43.90
71194;BME280;58903;47.210;8.618;2023-01-05T12:55:38;95036.47;;;26.11;43.79
71194;BME280;58903;47.210;8.618;2023-01-05T12:58:16;95033.72;;;26.11;43.28
71194;BME280;58903;47.210;8.618;2023-01-05T13:00:47;95034.47;;;26.12;43.39
71194;BME280;58903;47.210;8.618;2023-01-05T13:06:23;95033.47;;;26.09;44.09
71194;BME280;58903;47.210;8.618;2023-01-05T13:09:20;95042.47;;;26.10;43.54
71194;BME280;58903;47.210;8.618;2023-01-05T13:15:14;95045.22;;;26.10;43.78
71194;BME280;58903;47.210;8.618;2023-01-05T13:17:53;95023.94;;;26.10;43.23
71194;BME280;58903;47.210;8.618;2023-01-05T13:20:38;95040.47;;;26.10;44.02
71194;BME280;58903;47.210;8.618;2023-01-05T13:23:27;95044.50;;;26.09;43.54
71194;BME280;58903;47.210;8.618;2023-01-05T13:26:17;95041.72;;;26.09;43.65
71194;BME280;58903;47.210;8.618;2023-01-05T13:28:54;95039.72;;;26.10;43.54
71194;BME280;58903;47.210;8.618;2023-01-05T13:31:43;95033.72;;;26.11;43.78
71194;BME280;58903;47.210;8.618;2023-01-05T13:37:46;95037.72;;;26.10;44.06
71194;BME280;58903;47.210;8.618;2023-01-05T13:49:23;95036.22;;;26.09;43.24
71194;BME280;58903;47.210;8.618;2023-01-05T13:51:59;95044.50;;;26.09;43.69
71194;BME280;58903;47.210;8.618;2023-01-05T13:54:43;95042.19;;;26.08;43.65
71194;BME280;58903;47.210;8.618;2023-01-05T13:57:29;95038.69;;;26.07;44.04
71194;BME280;58903;47.210;8.618;2023-01-05T14:00:05;95046.50;;;26.09;43.47
71194;BME280;58903;47.210;8.618;2023-01-05T14:02:39;95042.47;;;26.10;43.89
71194;BME280;58903;47.210;8.618;2023-01-05T14:05:30;95043.97;;;26.11;43.61
71194;BME280;58903;47.210;8.618;2023-01-05T14:08:27;95037.22;;;26.12;44.02
71194;BME280;58903;47.210;8.618;2023-01-05T14:13:52;95039.47;;;26.13;43.88
71194;BME280;58903;47.210;8.618;2023-01-05T14:19:23;95036.22;;;26.15;43.75
71194;BME280;58903;47.210;8.618;2023-01-05T14:27:18;95045.25;;;26.15;43.42
71194;BME280;58903;47.210;8.618;2023-01-05T14:32:37;95054.53;;;26.18;43.17
71194;BME280;58903;47.210;8.618;2023-01-05T14:35:22;95039.72;;;26.15;43.71
71194;BME280;58903;47.210;8.618;2023-01-05T14:37:51;95044.50;;;26.15;43.51
71194;BME280;58903;47.210;8.618;2023-01-05T14:42:49;95052.00;;;26.14;42.96
71194;BME280;58903;47.210;8.618;2023-01-05T14:45:28;95056.53;;;26.17;43.20
71194;BME280;58903;47.210;8.618;2023-01-05T14:48:07;95062.28;;;26.20;43.67
71194;BME280;58903;47.210;8.618;2023-01-05T14:53:46;95063.81;;;26.21;43.01
71194;BME280;58903;47.210;8.618;2023-01-05T14:59:25;95071.84;;;26.19;42.76
71194;BME280;58903;47.210;8.618;2023-01-05T15:02:16;95071.81;;;26.13;43.06
71194;BME280;58903;47.210;8.618;2023-01-05T15:04:48;95065.28;;;26.10;42.63
71194;BME280;58903;47.210;8.618;2023-01-05T15:14:16;95064.81;;;26.12;43.44
71194;BME280;58903;47.210;8.618;2023-01-05T15:37:10;95060.75;;;26.07;43.23
71194;BME280;58903;47.210;8.618;2023-01-05T15:39:48;95057.22;;;26.07;43.00
71194;BME280;58903;47.210;8.618;2023-01-05T15:42:37;95061.22;;;26.06;43.10
71194;BME280;58903;47.210;8.618;2023-01-05T15:45:18;95052.22;;;26.05;42.87
71194;BME280;58903;47.210;8.618;2023-01-05T15:47:48;95055.22;;;26.07;43.09
71194;BME280;58903;47.210;8.618;2023-01-05T15:50:28;95049.72;;;26.07;43.18
71194;BME280;58903;47.210;8.618;2023-01-05T15:53:03;95050.72;;;26.04;43.58
71194;BME280;58903;47.210;8.618;2023-01-05T15:55:30;95050.19;;;26.06;43.38
71194;BME280;58903;47.210;8.618;2023-01-05T15:58:14;95056.47;;;26.06;42.81
71194;BME280;58903;47.210;8.618;2023-01-05T16:00:42;95054.97;;;26.05;42.83
71194;BME280;58903;47.210;8.618;2023-01-05T16:03:29;95062.50;;;26.05;43.43
71194;BME280;58903;47.210;8.618;2023-01-05T16:06:32;95071.53;;;26.05;42.88
71194;BME280;58903;47.210;8.618;2023-01-05T16:09:23;95067.25;;;26.04;43.50
71194;BME280;58903;47.210;8.618;2023-01-05T16:12:20;95071.25;;;26.03;43.27
71194;BME280;58903;47.210;8.618;2023-01-05T16:15:02;95066.50;;;26.04;43.45
71194;BME280;58903;47.210;8.618;2023-01-05T16:17:33;95064.25;;;26.02;43.29
71194;BME280;58903;47.210;8.618;2023-01-05T16:20:15;95069.75;;;26.02;43.58